createdAt,value
2022-08-19T00:02:54.324Z,94899.91
2022-08-19T00:06:38.251Z,94908.69
2022-08-19T00:10:21.640Z,94894.06
2022-08-19T00:14:04.534Z,94908.75
2022-08-19T00:17:49.137Z,94890.38
2022-08-19T00:21:32.283Z,94873.34
2022-08-19T00:25:15.327Z,94865.34
2022-08-19T00:28:58.616Z,94860.03
2022-08-19T00:32:41.762Z,94853.09
2022-08-19T00:36:26.335Z,94857.38
2022-08-19T00:40:10.142Z,94861.38
2022-08-19T00:44:01.298Z,94857.88
2022-08-19T00:47:44.095Z,94851.50
2022-08-19T00:51:29.699Z,94842.44
2022-08-19T00:55:13.011Z,94828.91
2022-08-19T00:58:57.118Z,94819.03
2022-08-19T01:02:40.299Z,94841.94
2022-08-19T01:06:23.331Z,94843.50
2022-08-19T01:10:09.780Z,94833.94
2022-08-19T01:13:54.524Z,94820.09
2022-08-19T01:17:38.680Z,94817.97
2022-08-19T01:21:24.836Z,94827.53
2022-08-19T01:25:14.752Z,94825.44
2022-08-19T01:29:00.898Z,94836.06
2022-08-19T01:32:44.351Z,94850.97
2022-08-19T01:36:29.602Z,94860.56
2022-08-19T01:40:14.086Z,94860.56
2022-08-19T01:44:17.069Z,94866.38
2022-08-19T01:48:02.075Z,94876.78
2022-08-19T01:51:45.341Z,94873.31
2022-08-19T01:55:29.825Z,94893.03
2022-08-19T01:59:15.011Z,94883.19
2022-08-19T02:02:57.753Z,94870.69
2022-08-19T02:06:41.392Z,94869.06
2022-08-19T02:10:24.955Z,94870.66
2022-08-19T02:14:09.831Z,94869.59
2022-08-19T02:17:52.734Z,94887.69
2022-08-19T02:21:36.157Z,94890.91
2022-08-19T02:25:19.059Z,94894.91
2022-08-19T02:29:02.331Z,94900.19
2022-08-19T02:32:46.768Z,94898.34
2022-08-19T02:36:29.754Z,94896.47
2022-08-19T02:40:13.751Z,94880.25
2022-08-19T02:44:26.235Z,94865.31
2022-08-19T02:48:01.742Z,94826.47
2022-08-19T02:51:48.229Z,94823.81
2022-08-19T02:55:30.991Z,94823.78
2022-08-19T02:59:31.756Z,94811.50
2022-08-19T03:03:16.349Z,94811.00
2022-08-19T03:07:02.667Z,94821.88
2022-08-19T03:10:54.296Z,94834.91
2022-08-19T03:14:37.381Z,94852.47
2022-08-19T03:18:23.311Z,94828.56
2022-08-19T03:22:06.356Z,94840.81
2022-08-19T03:25:58.208Z,94863.41
2022-08-19T03:29:53.924Z,94867.91
2022-08-19T03:33:38.726Z,94865.28
2022-08-19T03:37:21.788Z,94860.50
2022-08-19T03:41:07.359Z,94854.66
2022-08-19T03:44:50.159Z,94854.66
2022-08-19T03:48:33.842Z,94839.16
2022-08-19T03:52:17.957Z,94855.66
2022-08-19T03:56:01.653Z,94858.91
2022-08-19T03:59:45.095Z,94847.69
2022-08-19T04:03:28.428Z,94846.63
2022-08-19T04:07:11.918Z,94842.41
2022-08-19T04:10:56.120Z,94841.88
2022-08-19T04:14:39.067Z,94839.75
2022-08-19T04:18:21.802Z,94841.38
2022-08-19T04:22:05.202Z,94844.00
2022-08-19T04:25:47.997Z,94860.78
2022-08-19T04:29:32.218Z,94850.41
2022-08-19T04:33:16.326Z,94856.00
2022-08-19T04:37:01.329Z,94869.56
2022-08-19T04:41:02.854Z,94886.06
2022-08-19T04:44:46.997Z,94888.75
2022-08-19T04:48:29.801Z,94890.84
2022-08-19T04:52:12.586Z,94887.13
2022-08-19T04:55:55.310Z,94896.69
2022-08-19T04:59:38.819Z,94900.97
2022-08-19T05:03:25.591Z,94902.56
2022-08-19T05:07:11.686Z,94917.47
2022-08-19T05:10:54.485Z,94920.94
2022-08-19T05:14:37.799Z,94917.47
2022-08-19T05:18:39.247Z,94911.63
2022-08-19T05:22:35.592Z,94912.44
2022-08-19T05:26:18.387Z,94912.16
2022-08-19T05:30:02.256Z,94911.13
2022-08-19T05:33:46.599Z,94900.25
2022-08-19T05:37:29.540Z,94897.84
2022-08-19T05:41:16.178Z,94889.63
2022-08-19T05:44:58.945Z,94886.66
2022-08-19T05:48:41.714Z,94884.53
2022-08-19T05:52:26.465Z,94883.50
2022-08-19T05:56:11.149Z,94887.75
2022-08-19T05:59:58.584Z,94894.66
2022-08-19T06:03:41.930Z,94902.41
2022-08-19T06:07:26.146Z,94894.41
2022-08-19T06:11:18.731Z,94888.81
2022-08-19T06:15:02.358Z,94900.00
2022-08-19T06:18:45.209Z,94908.53
2022-08-19T06:22:30.378Z,94912.25
2022-08-19T06:26:14.144Z,94912.25
2022-08-19T06:29:56.983Z,94912.50
2022-08-19T06:33:40.035Z,94911.72
2022-08-19T06:37:23.451Z,94905.06
2022-08-19T06:41:08.251Z,94912.78
2022-08-19T06:44:53.695Z,94903.22
2022-08-19T06:48:43.311Z,94910.41
2022-08-19T06:52:28.235Z,94913.13
2022-08-19T06:56:13.830Z,94918.19
2022-08-19T06:59:57.495Z,94909.13
2022-08-19T07:03:41.369Z,94898.75
2022-08-19T07:07:24.181Z,94891.28
2022-08-19T07:11:09.342Z,94893.69
2022-08-19T07:14:54.942Z,94888.41
2022-08-19T07:18:41.275Z,94888.41
2022-08-19T07:22:27.211Z,94882.00
2022-08-19T07:26:13.111Z,94868.69
2022-08-19T07:29:59.704Z,94854.84
2022-08-19T07:33:44.249Z,94857.25
2022-08-19T07:37:32.429Z,94863.38
2022-08-19T07:41:19.373Z,94866.28
2022-08-19T07:45:03.693Z,94852.69
2022-08-19T07:48:47.687Z,94872.44
2022-08-19T07:52:30.448Z,94889.22
2022-08-19T07:56:14.017Z,94892.94
2022-08-19T07:59:57.191Z,94898.03
2022-08-19T08:03:58.913Z,94888.44
2022-08-19T08:07:59.230Z,94887.38
2022-08-19T08:11:43.835Z,94887.34
2022-08-19T08:15:26.983Z,94895.34
2022-08-19T08:19:25.770Z,94888.41
2022-08-19T08:23:27.403Z,94896.94
2022-08-19T08:27:11.252Z,94890.53
2022-08-19T08:30:55.230Z,94892.69
2022-08-19T08:34:39.421Z,94900.66
2022-08-19T08:38:22.459Z,94900.13
2022-08-19T08:42:16.789Z,94901.19
2022-08-19T08:46:03.873Z,94913.47
2022-08-19T08:49:53.337Z,94915.84
2022-08-19T08:53:40.440Z,94915.06
2022-08-19T08:57:36.838Z,94920.38
2022-08-19T09:01:23.599Z,94924.91
2022-08-19T09:05:11.007Z,94940.09
2022-08-19T09:09:12.145Z,94936.91
2022-08-19T09:13:01.467Z,94937.97
2022-08-19T09:16:44.493Z,94940.63
2022-08-19T09:20:28.772Z,94927.31
2022-08-19T09:24:11.531Z,94924.38
2022-08-19T09:28:02.417Z,94916.13
2022-08-19T09:31:46.041Z,94933.22
2022-08-19T09:35:31.499Z,94928.41
2022-08-19T09:39:16.272Z,94928.94
2022-08-19T09:43:03.440Z,94935.88
2022-08-19T09:46:53.063Z,94933.75
2022-08-19T09:50:39.493Z,94919.34
2022-08-19T09:54:34.973Z,94926.00
2022-08-19T09:58:23.431Z,94928.13
2022-08-19T10:02:11.317Z,94938.78
2022-08-19T10:05:56.839Z,94944.94
2022-08-19T10:09:41.848Z,94948.69
2022-08-19T10:13:27.934Z,94929.47
2022-08-19T10:17:19.210Z,94940.66
2022-08-19T10:21:11.581Z,94930.53
2022-08-19T10:24:54.732Z,94926.47
2022-08-19T10:28:39.174Z,94937.88
2022-08-19T10:32:33.946Z,94937.00
2022-08-19T10:36:20.010Z,94931.31
2022-08-19T10:40:03.920Z,94928.00
2022-08-19T10:43:49.031Z,94919.59
2022-08-19T10:47:32.012Z,94918.63
2022-08-19T10:51:32.035Z,94917.72
2022-08-19T10:55:33.698Z,94925.94
2022-08-19T10:59:16.782Z,94930.38
2022-08-19T11:02:59.517Z,94914.47
2022-08-19T11:06:44.194Z,94920.34
2022-08-19T11:10:28.328Z,94910.16
2022-08-19T11:14:13.133Z,94912.25
2022-08-19T11:17:57.030Z,94919.78
2022-08-19T11:21:42.323Z,94922.06
2022-08-19T11:25:25.092Z,94908.28
2022-08-19T11:29:12.380Z,94912.38
2022-08-19T11:32:55.187Z,94909.63
2022-08-19T11:36:39.812Z,94911.72
2022-08-19T11:40:22.728Z,94916.19
2022-08-19T11:44:05.769Z,94910.16
2022-08-19T11:47:50.168Z,94906.19
2022-08-19T11:51:34.663Z,94906.50
2022-08-19T11:55:17.893Z,94916.63
2022-08-19T11:59:03.918Z,94924.16
2022-08-19T12:02:46.759Z,94927.44
2022-08-19T12:06:34.954Z,94934.00
2022-08-19T12:10:18.492Z,94930.91
2022-08-19T12:14:02.612Z,94928.31
2022-08-19T12:17:45.368Z,94938.44
2022-08-19T12:21:30.392Z,94938.13
2022-08-19T12:25:13.715Z,94941.06
2022-08-19T12:28:57.155Z,94940.47
2022-08-19T12:32:40.487Z,94946.97
2022-08-19T12:36:24.171Z,94954.84
2022-08-19T12:40:09.785Z,94947.16
2022-08-19T12:43:52.696Z,94945.53
2022-08-19T12:47:35.751Z,94945.56
2022-08-19T12:51:21.580Z,94952.59
2022-08-19T12:55:05.720Z,94960.69
2022-08-19T12:58:50.923Z,94958.78
2022-08-19T13:02:38.267Z,94958.38
2022-08-19T13:06:23.622Z,94949.88
2022-08-19T13:10:07.807Z,94961.22
2022-08-19T13:13:53.326Z,94954.44
2022-08-19T13:17:36.132Z,94950.53
2022-08-19T13:21:20.852Z,94948.13
2022-08-19T13:25:06.678Z,94940.06
2022-08-19T13:29:07.108Z,94936.47
2022-08-19T13:33:08.755Z,94939.44
2022-08-19T13:36:51.554Z,94942.69
2022-08-19T13:40:41.248Z,94936.25
2022-08-19T13:44:24.173Z,94932.63
2022-08-19T13:48:09.559Z,94939.59
2022-08-19T13:51:52.286Z,94952.94
2022-08-19T13:55:35.399Z,94936.56
2022-08-19T13:59:18.618Z,94943.56
2022-08-19T14:03:01.471Z,94938.69
2022-08-19T14:06:45.623Z,94948.84
2022-08-19T14:10:29.295Z,94959.56
2022-08-19T14:14:16.227Z,94945.97
2022-08-19T14:17:59.514Z,94950.53
2022-08-19T14:21:42.931Z,94940.94
2022-08-19T14:25:30.225Z,94948.13
2022-08-19T14:29:13.560Z,94956.19
2022-08-19T14:32:56.583Z,94955.59
2022-08-19T14:36:39.636Z,94962.53
2022-08-19T14:40:26.628Z,94964.38
2022-08-19T14:44:13.260Z,94954.94
2022-08-19T14:47:56.337Z,94965.31
2022-08-19T14:51:39.479Z,94978.94
2022-08-19T14:55:22.451Z,94974.22
2022-08-19T14:59:05.169Z,94969.47
2022-08-19T15:02:49.327Z,94972.13
2022-08-19T15:06:32.654Z,94982.19
2022-08-19T15:10:16.323Z,94975.47
2022-08-19T15:13:59.179Z,94971.97
2022-08-19T15:17:45.242Z,94975.50
2022-08-19T15:21:38.665Z,94977.44
2022-08-19T15:25:23.921Z,94983.09
2022-08-19T15:29:06.743Z,94987.59
2022-08-19T15:32:49.665Z,94987.06
2022-08-19T15:36:32.576Z,94990.28
2022-08-19T15:40:16.737Z,94996.13
2022-08-19T15:44:03.274Z,94997.19
2022-08-19T15:47:46.050Z,94999.34
2022-08-19T15:51:30.349Z,94999.88
2022-08-19T15:55:15.981Z,95006.00
2022-08-19T15:59:33.677Z,95005.22
2022-08-19T16:03:41.284Z,95010.03
2022-08-19T16:07:27.003Z,95004.16
2022-08-19T16:11:10.217Z,95007.31
2022-08-19T16:14:54.477Z,95017.47
2022-08-19T16:18:38.322Z,95010.03
2022-08-19T16:22:21.767Z,95012.72
2022-08-19T16:26:04.526Z,95016.47
2022-08-19T16:29:47.309Z,95026.84
2022-08-19T16:33:31.964Z,95023.88
2022-08-19T16:37:15.703Z,95022.53
2022-08-19T16:41:00.514Z,95036.66
2022-08-19T16:44:46.070Z,95033.97
2022-08-19T16:48:31.372Z,95047.25
2022-08-19T16:52:14.814Z,95053.66
2022-08-19T16:55:57.740Z,95060.31
2022-08-19T16:59:48.323Z,95064.59
2022-08-19T17:03:36.480Z,95065.63
2022-08-19T17:07:19.979Z,95059.50
2022-08-19T17:11:17.698Z,95068.59
2022-08-19T17:15:02.451Z,95068.59
2022-08-19T17:18:46.785Z,95073.97
2022-08-19T17:22:30.008Z,95083.56
2022-08-19T17:26:17.166Z,95093.16
2022-08-19T17:30:02.622Z,95092.63
2022-08-19T17:33:48.982Z,95091.47
2022-08-19T17:37:31.883Z,95095.72
2022-08-19T17:41:14.698Z,95110.13
2022-08-19T17:44:59.553Z,95109.03
2022-08-19T17:48:42.805Z,95110.59
2022-08-19T17:52:27.088Z,95115.88
2022-08-19T17:56:10.620Z,95109.16
2022-08-19T17:59:53.420Z,95109.91
2022-08-19T18:03:36.162Z,95123.69
2022-08-19T18:07:19.497Z,95125.78
2022-08-19T18:11:03.773Z,95131.63
2022-08-19T18:14:46.553Z,95135.31
2022-08-19T18:18:29.424Z,95135.56
2022-08-19T18:22:14.377Z,95137.97
2022-08-19T18:25:57.228Z,95132.06
2022-08-19T18:29:44.400Z,95131.00
2022-08-19T18:33:27.206Z,95138.94
2022-08-19T18:37:10.916Z,95139.53
2022-08-19T18:41:11.329Z,95144.53
2022-08-19T18:45:16.088Z,95146.91
2022-08-19T18:49:09.214Z,95155.91
2022-08-19T18:52:51.930Z,95161.22
2022-08-19T18:56:35.669Z,95172.75
2022-08-19T19:00:19.994Z,95179.09
2022-08-19T19:04:05.900Z,95168.91
2022-08-19T19:07:48.678Z,95175.25
2022-08-19T19:11:37.180Z,95175.13
2022-08-19T19:15:21.444Z,95171.09
2022-08-19T19:19:06.543Z,95175.00
2022-08-19T19:22:49.307Z,95180.78
2022-08-19T19:26:33.046Z,95177.81
2022-08-19T19:30:15.790Z,95188.66
2022-08-19T19:34:00.369Z,95184.34
2022-08-19T19:37:45.165Z,95198.13
2022-08-19T19:41:27.951Z,95196.91
2022-08-19T19:45:10.876Z,95189.81
2022-08-19T19:48:59.421Z,95204.50
2022-08-19T19:52:46.597Z,95197.09
2022-08-19T19:56:29.304Z,95197.41
2022-08-19T20:00:15.201Z,95210.25
2022-08-19T20:04:01.384Z,95214.75
2022-08-19T20:08:02.132Z,95220.88
2022-08-19T20:11:53.621Z,95233.88
2022-08-19T20:15:41.716Z,95238.31
2022-08-19T20:19:27.104Z,95237.19
2022-08-19T20:23:11.550Z,95246.84
2022-08-19T20:26:54.818Z,95247.88
2022-08-19T20:30:41.366Z,95254.88
2022-08-19T20:34:29.430Z,95258.97
2022-08-19T20:38:13.951Z,95243.38
2022-08-19T20:41:56.881Z,95251.91
2022-08-19T20:45:39.920Z,95261.69
2022-08-19T20:49:23.062Z,95258.72
2022-08-19T20:53:13.897Z,95260.31
2022-08-19T20:56:56.740Z,95259.19
2022-08-19T21:00:39.617Z,95259.19
2022-08-19T21:04:23.241Z,95248.06
2022-08-19T21:08:06.134Z,95257.03
2022-08-19T21:11:50.316Z,95243.25
2022-08-19T21:15:34.593Z,95251.66
2022-08-19T21:19:22.039Z,95254.69
2022-08-19T21:23:07.624Z,95264.75
2022-08-19T21:26:51.727Z,95256.41
2022-08-19T21:30:35.864Z,95257.16
2022-08-19T21:34:19.301Z,95264.63
2022-08-19T21:38:01.988Z,95255.94
2022-08-19T21:41:44.745Z,95256.78
2022-08-19T21:45:29.154Z,95257.34
2022-08-19T21:49:12.430Z,95258.09
2022-08-19T21:52:55.896Z,95263.78
2022-08-19T21:56:39.996Z,95256.13
2022-08-19T22:00:24.332Z,95269.97
2022-08-19T22:04:08.787Z,95258.16
2022-08-19T22:07:51.629Z,95251.78
2022-08-19T22:11:34.587Z,95251.22
2022-08-19T22:15:17.388Z,95253.19
2022-08-19T22:19:01.294Z,95247.47
2022-08-19T22:22:49.317Z,95248.06
2022-08-19T22:26:33.001Z,95231.03
2022-08-19T22:30:18.070Z,95251.41
2022-08-19T22:34:01.835Z,95234.22
2022-08-19T22:37:44.588Z,95235.09
2022-08-19T22:41:28.690Z,95239.41
2022-08-19T22:45:13.468Z,95234.97
2022-08-19T22:49:00.936Z,95239.28
2022-08-19T22:52:51.672Z,95239.91
2022-08-19T22:56:36.559Z,95243.63
2022-08-19T23:00:19.801Z,95243.25
2022-08-19T23:04:03.858Z,95240.59
2022-08-19T23:07:52.175Z,95241.28
2022-08-19T23:11:42.186Z,95236.94
2022-08-19T23:15:26.874Z,95234.34
2022-08-19T23:19:10.021Z,95243.81
2022-08-19T23:22:53.063Z,95251.28
2022-08-19T23:26:37.557Z,95237.34
2022-08-19T23:30:28.765Z,95240.81
2022-08-19T23:34:11.515Z,95235.50
2022-08-19T23:37:54.621Z,95229.53
2022-08-19T23:41:38.946Z,95239.19
2022-08-19T23:45:24.621Z,95241.03
2022-08-19T23:49:07.537Z,95228.47
2022-08-19T23:52:53.238Z,95217.78
2022-08-19T23:56:36.014Z,95223.91
